Corbin, Kansas
Current Conditions -  °F | °C
As of 4:55 AM on Friday 19 Dec 2014 (Local Time) from KBKN Reporting Station
Haze Haze  
Wind Chill: 23°   Ceiling: 800
Heat Index: 32°   Visibility: 6mi
Dew Point: 32°   Wind: 12mph
Humidity: 100%   Direction: 10°N
Pressure: 30.18"   Gusts: NA
Location:  37.0967°N, 97.6589°W
Report Text: KBKN 191055Z AUTO 01010KT 6SM BR BKN008 OVC036 00/00 A3018 RMK AO2
Loading
Personal Weather Stations






























Interactive Weather Map New forecast layout! Learn more

10-Day Weather Forecast

Advertisements
Track Severe Weather on mobile